sensor_id;sensor_type;location;lat;lon;timestamp;temperature;humidity
10905;DHT22;5505;51.450;9.254;2022-12-31T00:02:33;10.80;99.90
10905;DHT22;5505;51.450;9.254;2022-12-31T00:05:21;10.80;99.90
10905;DHT22;5505;51.450;9.254;2022-12-31T00:08:08;10.80;99.90
10905;DHT22;5505;51.450;9.254;2022-12-31T00:10:55;10.80;99.90
10905;DHT22;5505;51.450;9.254;2022-12-31T00:13:42;10.80;99.90
10905;DHT22;5505;51.450;9.254;2022-12-31T00:16:32;10.80;99.90
10905;DHT22;5505;51.450;9.254;2022-12-31T00:19:20;10.80;99.90
10905;DHT22;5505;51.450;9.254;2022-12-31T00:22:08;10.80;99.90
10905;DHT22;5505;51.450;9.254;2022-12-31T00:24:55;10.80;99.90
10905;DHT22;5505;51.450;9.254;2022-12-31T00:27:42;10.80;99.90
10905;DHT22;5505;51.450;9.254;2022-12-31T00:30:29;12.30;99.90
10905;DHT22;5505;51.450;9.254;2022-12-31T00:33:16;10.80;99.90
10905;DHT22;5505;51.450;9.254;2022-12-31T00:36:05;10.80;99.90
10905;DHT22;5505;51.450;9.254;2022-12-31T00:38:55;10.90;99.90
10905;DHT22;5505;51.450;9.254;2022-12-31T00:41:42;10.90;99.90
10905;DHT22;5505;51.450;9.254;2022-12-31T00:44:29;10.90;99.90
10905;DHT22;5505;51.450;9.254;2022-12-31T00:47:16;11.80;99.90
10905;DHT22;5505;51.450;9.254;2022-12-31T00:50:03;11.00;99.90
10905;DHT22;5505;51.450;9.254;2022-12-31T00:52:50;11.00;99.90
10905;DHT22;5505;51.450;9.254;2022-12-31T00:55:38;11.00;99.90
10905;DHT22;5505;51.450;9.254;2022-12-31T00:58:25;12.20;99.90
10905;DHT22;5505;51.450;9.254;2022-12-31T01:01:17;11.10;99.90
10905;DHT22;5505;51.450;9.254;2022-12-31T01:04:07;11.10;99.90
10905;DHT22;5505;51.450;9.254;2022-12-31T01:06:54;11.20;99.90
10905;DHT22;5505;51.450;9.254;2022-12-31T01:09:41;11.20;99.90
10905;DHT22;5505;51.450;9.254;2022-12-31T01:12:29;11.30;99.90
10905;DHT22;5505;51.450;9.254;2022-12-31T01:15:15;11.30;99.90
10905;DHT22;5505;51.450;9.254;2022-12-31T01:18:03;11.40;99.90
10905;DHT22;5505;51.450;9.254;2022-12-31T01:20:50;11.40;99.90
10905;DHT22;5505;51.450;9.254;2022-12-31T01:23:37;11.50;99.90
10905;DHT22;5505;51.450;9.254;2022-12-31T01:26:24;11.50;99.90
10905;DHT22;5505;51.450;9.254;2022-12-31T01:29:13;11.60;99.90
10905;DHT22;5505;51.450;9.254;2022-12-31T01:32:01;12.20;99.90
10905;DHT22;5505;51.450;9.254;2022-12-31T01:34:48;11.60;99.90
10905;DHT22;5505;51.450;9.254;2022-12-31T01:37:34;11.60;99.90
10905;DHT22;5505;51.450;9.254;2022-12-31T01:40:21;11.60;99.90
10905;DHT22;5505;51.450;9.254;2022-12-31T01:43:14;12.30;99.90
10905;DHT22;5505;51.450;9.254;2022-12-31T01:46:03;11.70;99.90
10905;DHT22;5505;51.450;9.254;2022-12-31T01:48:51;11.80;99.90
10905;DHT22;5505;51.450;9.254;2022-12-31T01:51:40;12.90;99.90
10905;DHT22;5505;51.450;9.254;2022-12-31T01:54:29;11.80;99.90
10905;DHT22;5505;51.450;9.254;2022-12-31T01:57:18;11.80;99.90
10905;DHT22;5505;51.450;9.254;2022-12-31T02:00:05;11.80;99.90
10905;DHT22;5505;51.450;9.254;2022-12-31T02:02:55;11.80;99.90
10905;DHT22;5505;51.450;9.254;2022-12-31T02:05:46;11.80;99.90
10905;DHT22;5505;51.450;9.254;2022-12-31T02:08:36;11.90;99.90
10905;DHT22;5505;51.450;9.254;2022-12-31T02:11:27;11.90;99.90
10905;DHT22;5505;51.450;9.254;2022-12-31T02:14:16;11.90;99.90
10905;DHT22;5505;51.450;9.254;2022-12-31T02:17:08;11.90;99.90
10905;DHT22;5505;51.450;9.254;2022-12-31T02:20:34;11.80;99.90
10905;DHT22;5505;51.450;9.254;2022-12-31T02:23:53;11.80;99.90
10905;DHT22;5505;51.450;9.254;2022-12-31T02:27:01;11.90;99.90
10905;DHT22;5505;51.450;9.254;2022-12-31T02:30:10;11.90;99.90
10905;DHT22;5505;51.450;9.254;2022-12-31T02:33:10;11.80;99.90
10905;DHT22;5505;51.450;9.254;2022-12-31T02:36:00;11.80;99.90
10905;DHT22;5505;51.450;9.254;2022-12-31T02:38:48;11.80;99.90
10905;DHT22;5505;51.450;9.254;2022-12-31T02:41:36;11.80;99.90
10905;DHT22;5505;51.450;9.254;2022-12-31T02:44:42;11.80;99.90
10905;DHT22;5505;51.450;9.254;2022-12-31T02:47:41;11.70;99.90
10905;DHT22;5505;51.450;9.254;2022-12-31T02:50:39;11.80;99.90
10905;DHT22;5505;51.450;9.254;2022-12-31T02:56:56;11.80;99.90
10905;DHT22;5505;51.450;9.254;2022-12-31T02:59:49;11.90;99.90
10905;DHT22;5505;51.450;9.254;2022-12-31T03:02:57;11.90;99.90
10905;DHT22;5505;51.450;9.254;2022-12-31T03:05:47;12.60;99.90
10905;DHT22;5505;51.450;9.254;2022-12-31T03:08:34;11.90;99.90
10905;DHT22;5505;51.450;9.254;2022-12-31T03:11:41;11.90;99.90
10905;DHT22;5505;51.450;9.254;2022-12-31T03:14:46;11.90;99.90
10905;DHT22;5505;51.450;9.254;2022-12-31T03:17:33;12.00;99.90
10905;DHT22;5505;51.450;9.254;2022-12-31T03:20:24;11.90;99.90
10905;DHT22;5505;51.450;9.254;2022-12-31T03:23:31;12.00;99.90
10905;DHT22;5505;51.450;9.254;2022-12-31T03:26:19;12.10;99.90
10905;DHT22;5505;51.450;9.254;2022-12-31T03:29:04;12.70;99.90
10905;DHT22;5505;51.450;9.254;2022-12-31T03:31:51;12.00;99.90
10905;DHT22;5505;51.450;9.254;2022-12-31T03:34:38;12.10;99.90
10905;DHT22;5505;51.450;9.254;2022-12-31T03:37:26;12.10;99.90
10905;DHT22;5505;51.450;9.254;2022-12-31T03:40:14;12.20;99.90
10905;DHT22;5505;51.450;9.254;2022-12-31T03:43:01;12.20;99.90
10905;DHT22;5505;51.450;9.254;2022-12-31T03:45:48;12.20;99.90
10905;DHT22;5505;51.450;9.254;2022-12-31T03:48:36;12.30;99.90
10905;DHT22;5505;51.450;9.254;2022-12-31T03:51:24;12.30;99.90
10905;DHT22;5505;51.450;9.254;2022-12-31T03:54:12;12.40;99.90
10905;DHT22;5505;51.450;9.254;2022-12-31T03:56:59;12.30;99.90
10905;DHT22;5505;51.450;9.254;2022-12-31T03:59:46;12.50;99.90
10905;DHT22;5505;51.450;9.254;2022-12-31T04:02:33;10.70;99.90
10905;DHT22;5505;51.450;9.254;2022-12-31T04:05:20;12.60;99.90
10905;DHT22;5505;51.450;9.254;2022-12-31T04:08:07;12.60;99.90
10905;DHT22;5505;51.450;9.254;2022-12-31T04:10:55;12.60;99.90
10905;DHT22;5505;51.450;9.254;2022-12-31T04:13:42;12.70;99.90
10905;DHT22;5505;51.450;9.254;2022-12-31T04:16:28;12.70;99.90
10905;DHT22;5505;51.450;9.254;2022-12-31T04:19:16;12.80;99.90
10905;DHT22;5505;51.450;9.254;2022-12-31T04:22:03;12.80;99.90
10905;DHT22;5505;51.450;9.254;2022-12-31T04:24:50;12.80;99.90
10905;DHT22;5505;51.450;9.254;2022-12-31T04:27:39;12.70;99.90
10905;DHT22;5505;51.450;9.254;2022-12-31T04:30:27;12.80;99.90
10905;DHT22;5505;51.450;9.254;2022-12-31T04:33:14;12.80;99.90
10905;DHT22;5505;51.450;9.254;2022-12-31T04:36:01;12.80;99.90
10905;DHT22;5505;51.450;9.254;2022-12-31T04:38:48;13.00;99.90
10905;DHT22;5505;51.450;9.254;2022-12-31T04:41:35;12.90;99.90
10905;DHT22;5505;51.450;9.254;2022-12-31T04:44:23;12.90;99.90
10905;DHT22;5505;51.450;9.254;2022-12-31T04:47:10;13.00;99.90
10905;DHT22;5505;51.450;9.254;2022-12-31T04:49:56;13.00;99.90
10905;DHT22;5505;51.450;9.254;2022-12-31T04:52:43;13.00;99.90
10905;DHT22;5505;51.450;9.254;2022-12-31T04:55:30;13.10;99.90
10905;DHT22;5505;51.450;9.254;2022-12-31T04:58:17;13.00;99.90
10905;DHT22;5505;51.450;9.254;2022-12-31T05:01:05;13.10;99.90
10905;DHT22;5505;51.450;9.254;2022-12-31T05:03:52;13.10;99.90
10905;DHT22;5505;51.450;9.254;2022-12-31T05:06:39;13.10;99.90
10905;DHT22;5505;51.450;9.254;2022-12-31T05:09:26;13.10;99.90
10905;DHT22;5505;51.450;9.254;2022-12-31T05:12:12;13.20;99.90
10905;DHT22;5505;51.450;9.254;2022-12-31T05:14:59;13.20;99.90
10905;DHT22;5505;51.450;9.254;2022-12-31T05:17:47;14.50;99.90
10905;DHT22;5505;51.450;9.254;2022-12-31T05:20:34;13.20;99.90
10905;DHT22;5505;51.450;9.254;2022-12-31T05:23:21;13.30;99.90
10905;DHT22;5505;51.450;9.254;2022-12-31T05:26:08;13.30;99.90
10905;DHT22;5505;51.450;9.254;2022-12-31T05:28:55;13.30;99.90
10905;DHT22;5505;51.450;9.254;2022-12-31T05:31:41;13.30;99.90
10905;DHT22;5505;51.450;9.254;2022-12-31T05:34:30;13.40;99.90
10905;DHT22;5505;51.450;9.254;2022-12-31T05:37:16;13.40;99.90
10905;DHT22;5505;51.450;9.254;2022-12-31T05:40:04;13.30;99.90
10905;DHT22;5505;51.450;9.254;2022-12-31T05:42:51;13.30;99.90
10905;DHT22;5505;51.450;9.254;2022-12-31T05:45:38;13.40;99.90
10905;DHT22;5505;51.450;9.254;2022-12-31T05:48:24;13.40;99.90
10905;DHT22;5505;51.450;9.254;2022-12-31T05:51:12;14.10;99.90
10905;DHT22;5505;51.450;9.254;2022-12-31T05:53:59;13.40;99.90
10905;DHT22;5505;51.450;9.254;2022-12-31T05:56:46;13.50;99.90
10905;DHT22;5505;51.450;9.254;2022-12-31T05:59:33;13.40;99.90
10905;DHT22;5505;51.450;9.254;2022-12-31T06:02:20;13.30;99.90
10905;DHT22;5505;51.450;9.254;2022-12-31T06:05:08;13.50;99.90
10905;DHT22;5505;51.450;9.254;2022-12-31T06:07:56;13.50;99.90
10905;DHT22;5505;51.450;9.254;2022-12-31T06:10:42;13.50;99.90
10905;DHT22;5505;51.450;9.254;2022-12-31T06:13:29;13.50;99.90
10905;DHT22;5505;51.450;9.254;2022-12-31T06:16:16;13.60;99.90
10905;DHT22;5505;51.450;9.254;2022-12-31T06:19:03;13.60;99.90
10905;DHT22;5505;51.450;9.254;2022-12-31T06:21:50;13.60;99.90
10905;DHT22;5505;51.450;9.254;2022-12-31T06:24:38;13.50;99.90
10905;DHT22;5505;51.450;9.254;2022-12-31T06:27:25;13.60;99.90
10905;DHT22;5505;51.450;9.254;2022-12-31T06:30:12;13.70;99.90
10905;DHT22;5505;51.450;9.254;2022-12-31T06:32:59;13.70;99.90
10905;DHT22;5505;51.450;9.254;2022-12-31T06:35:46;14.40;99.90
10905;DHT22;5505;51.450;9.254;2022-12-31T06:38:35;13.70;99.90
10905;DHT22;5505;51.450;9.254;2022-12-31T06:41:24;13.70;99.90
10905;DHT22;5505;51.450;9.254;2022-12-31T06:44:10;14.40;99.90
10905;DHT22;5505;51.450;9.254;2022-12-31T06:46:59;13.90;99.90
10905;DHT22;5505;51.450;9.254;2022-12-31T06:49:45;13.90;99.90
10905;DHT22;5505;51.450;9.254;2022-12-31T06:52:32;14.00;99.90
10905;DHT22;5505;51.450;9.254;2022-12-31T06:55:20;14.00;99.90
10905;DHT22;5505;51.450;9.254;2022-12-31T06:58:11;14.00;99.90
10905;DHT22;5505;51.450;9.254;2022-12-31T07:01:04;14.00;99.90
10905;DHT22;5505;51.450;9.254;2022-12-31T07:03:59;14.20;99.90
10905;DHT22;5505;51.450;9.254;2022-12-31T07:06:51;14.10;99.90
10905;DHT22;5505;51.450;9.254;2022-12-31T07:09:43;14.10;99.90
10905;DHT22;5505;51.450;9.254;2022-12-31T07:12:45;14.20;99.90
10905;DHT22;5505;51.450;9.254;2022-12-31T07:15:51;14.20;99.90
10905;DHT22;5505;51.450;9.254;2022-12-31T07:18:45;14.30;99.90
10905;DHT22;5505;51.450;9.254;2022-12-31T07:21:35;14.30;99.90
10905;DHT22;5505;51.450;9.254;2022-12-31T07:24:23;14.30;99.90
10905;DHT22;5505;51.450;9.254;2022-12-31T07:27:26;14.40;99.90
10905;DHT22;5505;51.450;9.254;2022-12-31T07:30:19;14.40;99.90
10905;DHT22;5505;51.450;9.254;2022-12-31T07:33:29;14.40;99.90
10905;DHT22;5505;51.450;9.254;2022-12-31T07:36:26;14.50;99.90
10905;DHT22;5505;51.450;9.254;2022-12-31T07:39:22;15.40;99.90
10905;DHT22;5505;51.450;9.254;2022-12-31T07:42:15;14.70;99.90
10905;DHT22;5505;51.450;9.254;2022-12-31T07:45:11;14.70;99.90
10905;DHT22;5505;51.450;9.254;2022-12-31T07:48:01;14.70;99.90
10905;DHT22;5505;51.450;9.254;2022-12-31T07:50:50;14.70;99.90
10905;DHT22;5505;51.450;9.254;2022-12-31T07:53:38;14.70;99.90
10905;DHT22;5505;51.450;9.254;2022-12-31T07:56:25;14.70;99.90
10905;DHT22;5505;51.450;9.254;2022-12-31T07:59:20;14.70;99.90
10905;DHT22;5505;51.450;9.254;2022-12-31T08:02:16;14.60;99.90
10905;DHT22;5505;51.450;9.254;2022-12-31T08:05:10;14.60;99.90
10905;DHT22;5505;51.450;9.254;2022-12-31T08:08:13;14.60;99.90
10905;DHT22;5505;51.450;9.254;2022-12-31T08:11:09;14.70;99.90
10905;DHT22;5505;51.450;9.254;2022-12-31T08:14:00;14.70;99.90
10905;DHT22;5505;51.450;9.254;2022-12-31T08:16:48;14.70;99.90
10905;DHT22;5505;51.450;9.254;2022-12-31T08:19:35;14.70;99.90
10905;DHT22;5505;51.450;9.254;2022-12-31T08:22:36;14.70;99.90
10905;DHT22;5505;51.450;9.254;2022-12-31T08:25:32;14.70;99.90
10905;DHT22;5505;51.450;9.254;2022-12-31T08:28:27;15.80;99.90
10905;DHT22;5505;51.450;9.254;2022-12-31T08:31:17;14.80;99.90
10905;DHT22;5505;51.450;9.254;2022-12-31T08:34:11;14.80;99.90
10905;DHT22;5505;51.450;9.254;2022-12-31T08:37:07;14.80;99.90
10905;DHT22;5505;51.450;9.254;2022-12-31T08:40:10;14.80;99.90
10905;DHT22;5505;51.450;9.254;2022-12-31T08:43:13;14.80;99.90
10905;DHT22;5505;51.450;9.254;2022-12-31T08:46:01;14.80;99.90
10905;DHT22;5505;51.450;9.254;2022-12-31T08:48:50;14.80;99.90
10905;DHT22;5505;51.450;9.254;2022-12-31T08:51:37;14.90;99.90
10905;DHT22;5505;51.450;9.254;2022-12-31T08:54:25;14.90;99.90
10905;DHT22;5505;51.450;9.254;2022-12-31T08:57:17;14.90;99.90
10905;DHT22;5505;51.450;9.254;2022-12-31T09:00:10;14.90;99.90
10905;DHT22;5505;51.450;9.254;2022-12-31T09:03:14;15.00;99.90
10905;DHT22;5505;51.450;9.254;2022-12-31T09:06:09;15.00;99.90
10905;DHT22;5505;51.450;9.254;2022-12-31T09:09:04;15.00;99.90
10905;DHT22;5505;51.450;9.254;2022-12-31T09:11:57;15.00;99.90
10905;DHT22;5505;51.450;9.254;2022-12-31T09:14:47;15.30;99.90
10905;DHT22;5505;51.450;9.254;2022-12-31T09:17:42;15.20;99.90
10905;DHT22;5505;51.450;9.254;2022-12-31T09:20:32;15.10;99.90
10905;DHT22;5505;51.450;9.254;2022-12-31T09:23:19;15.10;99.90
10905;DHT22;5505;51.450;9.254;2022-12-31T09:26:14;15.20;99.90
10905;DHT22;5505;51.450;9.254;2022-12-31T09:29:09;15.20;99.90
10905;DHT22;5505;51.450;9.254;2022-12-31T09:32:07;15.20;99.90
10905;DHT22;5505;51.450;9.254;2022-12-31T09:35:00;15.20;99.90
10905;DHT22;5505;51.450;9.254;2022-12-31T09:37:55;15.20;99.90
10905;DHT22;5505;51.450;9.254;2022-12-31T09:41:04;15.20;99.90
10905;DHT22;5505;51.450;9.254;2022-12-31T09:44:16;15.20;99.90
10905;DHT22;5505;51.450;9.254;2022-12-31T09:54:02;15.30;99.90
10905;DHT22;5505;51.450;9.254;2022-12-31T09:57:16;15.40;99.90
10905;DHT22;5505;51.450;9.254;2022-12-31T10:00:12;15.40;99.90
10905;DHT22;5505;51.450;9.254;2022-12-31T10:03:15;15.40;99.90
10905;DHT22;5505;51.450;9.254;2022-12-31T10:06:23;15.40;99.90
10905;DHT22;5505;51.450;9.254;2022-12-31T10:09:25;15.40;99.90
10905;DHT22;5505;51.450;9.254;2022-12-31T10:12:43;15.50;99.90
10905;DHT22;5505;51.450;9.254;2022-12-31T10:16:03;15.50;99.90
10905;DHT22;5505;51.450;9.254;2022-12-31T10:19:35;15.50;99.90
10905;DHT22;5505;51.450;9.254;2022-12-31T10:22:44;15.50;99.90
10905;DHT22;5505;51.450;9.254;2022-12-31T10:25:47;15.50;99.90
10905;DHT22;5505;51.450;9.254;2022-12-31T10:28:48;15.60;99.90
10905;DHT22;5505;51.450;9.254;2022-12-31T10:31:38;15.50;99.90
10905;DHT22;5505;51.450;9.254;2022-12-31T10:34:30;15.50;99.90
10905;DHT22;5505;51.450;9.254;2022-12-31T10:37:24;15.50;99.90
10905;DHT22;5505;51.450;9.254;2022-12-31T10:40:24;15.50;99.90
10905;DHT22;5505;51.450;9.254;2022-12-31T10:43:34;15.50;99.90
10905;DHT22;5505;51.450;9.254;2022-12-31T10:46:52;15.50;99.90
10905;DHT22;5505;51.450;9.254;2022-12-31T10:53:51;15.50;99.90
10905;DHT22;5505;51.450;9.254;2022-12-31T11:00:15;15.30;99.90
10905;DHT22;5505;51.450;9.254;2022-12-31T11:03:33;15.40;99.90
10905;DHT22;5505;51.450;9.254;2022-12-31T11:06:46;15.40;99.90
10905;DHT22;5505;51.450;9.254;2022-12-31T11:10:06;15.50;99.90
10905;DHT22;5505;51.450;9.254;2022-12-31T11:13:35;15.50;99.90
10905;DHT22;5505;51.450;9.254;2022-12-31T11:16:47;15.60;99.90
10905;DHT22;5505;51.450;9.254;2022-12-31T11:19:46;15.70;99.90
10905;DHT22;5505;51.450;9.254;2022-12-31T11:22:42;16.50;99.90
10905;DHT22;5505;51.450;9.254;2022-12-31T11:25:42;16.20;99.90
10905;DHT22;5505;51.450;9.254;2022-12-31T11:28:44;15.90;99.90
10905;DHT22;5505;51.450;9.254;2022-12-31T11:31:54;15.80;99.90
10905;DHT22;5505;51.450;9.254;2022-12-31T11:35:12;15.90;99.90
10905;DHT22;5505;51.450;9.254;2022-12-31T11:38:09;15.90;99.90
10905;DHT22;5505;51.450;9.254;2022-12-31T11:41:05;16.00;99.90
10905;DHT22;5505;51.450;9.254;2022-12-31T11:44:00;16.10;99.90
10905;DHT22;5505;51.450;9.254;2022-12-31T11:47:02;16.10;99.90
10905;DHT22;5505;51.450;9.254;2022-12-31T11:50:02;16.10;99.90
10905;DHT22;5505;51.450;9.254;2022-12-31T11:53:12;16.10;99.90
10905;DHT22;5505;51.450;9.254;2022-12-31T11:56:08;16.20;99.90
10905;DHT22;5505;51.450;9.254;2022-12-31T11:58:58;16.20;99.90
10905;DHT22;5505;51.450;9.254;2022-12-31T12:01:51;16.20;99.90
10905;DHT22;5505;51.450;9.254;2022-12-31T12:04:42;16.30;99.90
10905;DHT22;5505;51.450;9.254;2022-12-31T12:07:30;16.30;99.90
10905;DHT22;5505;51.450;9.254;2022-12-31T12:10:22;16.20;99.90
10905;DHT22;5505;51.450;9.254;2022-12-31T12:13:19;16.20;99.90
10905;DHT22;5505;51.450;9.254;2022-12-31T12:16:07;16.20;99.90
10905;DHT22;5505;51.450;9.254;2022-12-31T12:19:02;16.20;99.90
10905;DHT22;5505;51.450;9.254;2022-12-31T12:21:50;16.20;99.90
10905;DHT22;5505;51.450;9.254;2022-12-31T12:24:38;16.30;99.90
10905;DHT22;5505;51.450;9.254;2022-12-31T12:27:28;16.30;99.90
10905;DHT22;5505;51.450;9.254;2022-12-31T12:30:19;16.30;99.90
10905;DHT22;5505;51.450;9.254;2022-12-31T12:33:16;16.40;99.90
10905;DHT22;5505;51.450;9.254;2022-12-31T12:36:07;16.30;99.90
10905;DHT22;5505;51.450;9.254;2022-12-31T12:39:04;16.20;99.90
10905;DHT22;5505;51.450;9.254;2022-12-31T12:42:02;16.20;99.90
10905;DHT22;5505;51.450;9.254;2022-12-31T12:45:00;16.20;99.90
10905;DHT22;5505;51.450;9.254;2022-12-31T12:47:49;16.20;99.90
10905;DHT22;5505;51.450;9.254;2022-12-31T12:50:42;16.20;99.90
10905;DHT22;5505;51.450;9.254;2022-12-31T12:53:39;16.20;99.90
10905;DHT22;5505;51.450;9.254;2022-12-31T12:56:37;17.50;99.90
10905;DHT22;5505;51.450;9.254;2022-12-31T12:59:52;16.30;99.90
10905;DHT22;5505;51.450;9.254;2022-12-31T13:06:19;16.40;99.90
10905;DHT22;5505;51.450;9.254;2022-12-31T13:09:28;16.40;99.90
10905;DHT22;5505;51.450;9.254;2022-12-31T13:12:24;16.40;99.90
10905;DHT22;5505;51.450;9.254;2022-12-31T13:15:19;16.40;99.90
10905;DHT22;5505;51.450;9.254;2022-12-31T13:18:14;16.40;99.90
10905;DHT22;5505;51.450;9.254;2022-12-31T13:21:14;16.40;99.90
10905;DHT22;5505;51.450;9.254;2022-12-31T13:24:14;16.40;99.90
10905;DHT22;5505;51.450;9.254;2022-12-31T13:27:09;17.40;99.90
10905;DHT22;5505;51.450;9.254;2022-12-31T13:30:01;16.50;99.90
10905;DHT22;5505;51.450;9.254;2022-12-31T13:32:52;16.50;99.90
10905;DHT22;5505;51.450;9.254;2022-12-31T13:35:43;16.60;99.90
10905;DHT22;5505;51.450;9.254;2022-12-31T13:38:33;16.60;99.90
10905;DHT22;5505;51.450;9.254;2022-12-31T13:41:25;16.60;99.90
10905;DHT22;5505;51.450;9.254;2022-12-31T13:44:17;16.70;99.90
10905;DHT22;5505;51.450;9.254;2022-12-31T13:47:12;16.70;99.90
10905;DHT22;5505;51.450;9.254;2022-12-31T13:50:11;16.70;99.90
10905;DHT22;5505;51.450;9.254;2022-12-31T13:53:04;16.70;99.90
10905;DHT22;5505;51.450;9.254;2022-12-31T13:55:55;16.70;99.90
10905;DHT22;5505;51.450;9.254;2022-12-31T13:58:47;15.00;99.90
10905;DHT22;5505;51.450;9.254;2022-12-31T14:01:37;16.80;99.90
10905;DHT22;5505;51.450;9.254;2022-12-31T14:04:32;16.70;99.90
10905;DHT22;5505;51.450;9.254;2022-12-31T14:07:21;16.70;99.90
10905;DHT22;5505;51.450;9.254;2022-12-31T14:10:11;16.60;99.90
10905;DHT22;5505;51.450;9.254;2022-12-31T14:13:04;16.60;99.90
10905;DHT22;5505;51.450;9.254;2022-12-31T14:16:05;16.60;99.90
10905;DHT22;5505;51.450;9.254;2022-12-31T14:19:00;16.60;99.90
10905;DHT22;5505;51.450;9.254;2022-12-31T14:21:55;16.50;99.90
10905;DHT22;5505;51.450;9.254;2022-12-31T14:24:47;16.60;99.90
10905;DHT22;5505;51.450;9.254;2022-12-31T14:27:39;16.50;99.90
10905;DHT22;5505;51.450;9.254;2022-12-31T14:30:29;17.30;99.90
10905;DHT22;5505;51.450;9.254;2022-12-31T14:33:33;16.50;99.90
10905;DHT22;5505;51.450;9.254;2022-12-31T14:36:32;16.50;99.90
10905;DHT22;5505;51.450;9.254;2022-12-31T14:39:31;16.50;99.90
10905;DHT22;5505;51.450;9.254;2022-12-31T14:42:30;16.40;99.90
10905;DHT22;5505;51.450;9.254;2022-12-31T14:45:29;16.40;99.90
10905;DHT22;5505;51.450;9.254;2022-12-31T14:48:28;16.50;99.90
10905;DHT22;5505;51.450;9.254;2022-12-31T14:51:17;16.40;99.90
10905;DHT22;5505;51.450;9.254;2022-12-31T14:54:04;16.40;99.90
10905;DHT22;5505;51.450;9.254;2022-12-31T14:57:21;16.40;99.90
10905;DHT22;5505;51.450;9.254;2022-12-31T15:00:28;16.30;99.90
10905;DHT22;5505;51.450;9.254;2022-12-31T15:03:23;16.30;99.90
10905;DHT22;5505;51.450;9.254;2022-12-31T15:09:53;16.20;99.90
10905;DHT22;5505;51.450;9.254;2022-12-31T15:12:55;16.10;99.90
10905;DHT22;5505;51.450;9.254;2022-12-31T15:16:16;16.00;99.90
10905;DHT22;5505;51.450;9.254;2022-12-31T15:19:38;14.30;99.90
10905;DHT22;5505;51.450;9.254;2022-12-31T15:22:37;15.90;99.90
10905;DHT22;5505;51.450;9.254;2022-12-31T15:25:29;15.90;99.90
10905;DHT22;5505;51.450;9.254;2022-12-31T15:28:31;15.80;99.90
10905;DHT22;5505;51.450;9.254;2022-12-31T15:31:19;15.70;99.90
10905;DHT22;5505;51.450;9.254;2022-12-31T15:34:24;15.70;99.90
10905;DHT22;5505;51.450;9.254;2022-12-31T15:37:28;15.70;99.90
10905;DHT22;5505;51.450;9.254;2022-12-31T15:40:18;15.60;99.90
10905;DHT22;5505;51.450;9.254;2022-12-31T15:43:09;15.60;99.90
10905;DHT22;5505;51.450;9.254;2022-12-31T15:46:01;15.50;99.90
10905;DHT22;5505;51.450;9.254;2022-12-31T15:48:52;16.20;99.90
10905;DHT22;5505;51.450;9.254;2022-12-31T15:51:45;15.40;99.90
10905;DHT22;5505;51.450;9.254;2022-12-31T15:54:37;15.30;99.90
10905;DHT22;5505;51.450;9.254;2022-12-31T15:57:29;15.30;99.90
10905;DHT22;5505;51.450;9.254;2022-12-31T16:00:19;15.30;99.90
10905;DHT22;5505;51.450;9.254;2022-12-31T16:03:18;15.30;99.90
10905;DHT22;5505;51.450;9.254;2022-12-31T16:06:09;15.30;99.90
10905;DHT22;5505;51.450;9.254;2022-12-31T16:08:57;15.40;99.90
10905;DHT22;5505;51.450;9.254;2022-12-31T16:11:44;15.40;99.90
10905;DHT22;5505;51.450;9.254;2022-12-31T16:14:35;15.50;99.90
10905;DHT22;5505;51.450;9.254;2022-12-31T16:17:28;15.80;99.90
10905;DHT22;5505;51.450;9.254;2022-12-31T16:20:23;15.50;99.90
10905;DHT22;5505;51.450;9.254;2022-12-31T16:23:18;15.40;99.90
10905;DHT22;5505;51.450;9.254;2022-12-31T16:26:09;15.40;99.90
10905;DHT22;5505;51.450;9.254;2022-12-31T16:28:56;15.40;99.90
10905;DHT22;5505;51.450;9.254;2022-12-31T16:31:46;15.30;99.90
10905;DHT22;5505;51.450;9.254;2022-12-31T16:34:36;15.30;99.90
10905;DHT22;5505;51.450;9.254;2022-12-31T16:37:25;15.20;99.90
10905;DHT22;5505;51.450;9.254;2022-12-31T16:40:18;15.20;99.90
10905;DHT22;5505;51.450;9.254;2022-12-31T16:43:21;15.20;99.90
10905;DHT22;5505;51.450;9.254;2022-12-31T16:46:13;15.10;99.90
10905;DHT22;5505;51.450;9.254;2022-12-31T16:49:06;15.10;99.90
10905;DHT22;5505;51.450;9.254;2022-12-31T16:52:01;15.00;99.90
10905;DHT22;5505;51.450;9.254;2022-12-31T16:54:50;14.90;99.90
10905;DHT22;5505;51.450;9.254;2022-12-31T16:57:38;14.90;99.90
10905;DHT22;5505;51.450;9.254;2022-12-31T17:00:26;14.80;99.90
10905;DHT22;5505;51.450;9.254;2022-12-31T17:03:17;14.80;99.90
10905;DHT22;5505;51.450;9.254;2022-12-31T17:06:12;14.80;99.90
10905;DHT22;5505;51.450;9.254;2022-12-31T17:09:09;14.80;99.90
10905;DHT22;5505;51.450;9.254;2022-12-31T17:12:10;14.80;99.90
10905;DHT22;5505;51.450;9.254;2022-12-31T17:15:01;14.80;99.90
10905;DHT22;5505;51.450;9.254;2022-12-31T17:17:51;14.80;99.90
10905;DHT22;5505;51.450;9.254;2022-12-31T17:20:38;15.60;99.90
10905;DHT22;5505;51.450;9.254;2022-12-31T17:23:27;14.80;99.90
10905;DHT22;5505;51.450;9.254;2022-12-31T17:26:22;14.70;99.90
10905;DHT22;5505;51.450;9.254;2022-12-31T17:29:17;14.50;99.90
10905;DHT22;5505;51.450;9.254;2022-12-31T17:32:08;14.50;99.90
10905;DHT22;5505;51.450;9.254;2022-12-31T17:35:27;15.40;99.90
10905;DHT22;5505;51.450;9.254;2022-12-31T17:38:28;14.50;99.90
10905;DHT22;5505;51.450;9.254;2022-12-31T17:41:22;14.50;99.90
10905;DHT22;5505;51.450;9.254;2022-12-31T17:44:14;14.40;99.90
10905;DHT22;5505;51.450;9.254;2022-12-31T17:47:02;14.80;99.90
10905;DHT22;5505;51.450;9.254;2022-12-31T17:49:49;14.40;99.90
10905;DHT22;5505;51.450;9.254;2022-12-31T17:52:38;14.30;99.90
10905;DHT22;5505;51.450;9.254;2022-12-31T17:55:25;14.40;99.90
10905;DHT22;5505;51.450;9.254;2022-12-31T17:58:16;14.30;99.90
10905;DHT22;5505;51.450;9.254;2022-12-31T18:01:06;14.90;99.90
10905;DHT22;5505;51.450;9.254;2022-12-31T18:03:53;14.30;99.90
10905;DHT22;5505;51.450;9.254;2022-12-31T18:06:41;14.30;99.90
10905;DHT22;5505;51.450;9.254;2022-12-31T18:09:29;14.30;99.90
10905;DHT22;5505;51.450;9.254;2022-12-31T18:12:16;15.20;99.90
10905;DHT22;5505;51.450;9.254;2022-12-31T18:15:04;14.30;99.90
10905;DHT22;5505;51.450;9.254;2022-12-31T18:17:52;14.30;99.90
10905;DHT22;5505;51.450;9.254;2022-12-31T18:20:39;14.30;99.90
10905;DHT22;5505;51.450;9.254;2022-12-31T18:23:28;14.30;99.90
10905;DHT22;5505;51.450;9.254;2022-12-31T18:26:17;14.20;99.90
10905;DHT22;5505;51.450;9.254;2022-12-31T18:29:12;14.30;99.90
10905;DHT22;5505;51.450;9.254;2022-12-31T18:32:00;14.20;99.90
10905;DHT22;5505;51.450;9.254;2022-12-31T18:34:48;14.20;99.90
10905;DHT22;5505;51.450;9.254;2022-12-31T18:37:35;14.40;99.90
10905;DHT22;5505;51.450;9.254;2022-12-31T18:40:22;15.10;99.90
10905;DHT22;5505;51.450;9.254;2022-12-31T18:43:14;14.20;99.90
10905;DHT22;5505;51.450;9.254;2022-12-31T18:46:01;14.20;99.90
10905;DHT22;5505;51.450;9.254;2022-12-31T18:48:48;14.10;99.90
10905;DHT22;5505;51.450;9.254;2022-12-31T18:51:36;14.20;99.90
10905;DHT22;5505;51.450;9.254;2022-12-31T18:54:23;14.20;99.90
10905;DHT22;5505;51.450;9.254;2022-12-31T18:57:10;14.20;99.90